createdAt,value
2022-10-13T00:01:18.024Z,97064.56
2022-10-13T00:03:47.740Z,97065.33
2022-10-13T00:06:24.671Z,97065.98
2022-10-13T00:08:53.142Z,97068.41
2022-10-13T00:11:27.030Z,97062.31
2022-10-13T00:13:58.007Z,97065.30
2022-10-13T00:16:26.518Z,97060.11
2022-10-13T00:18:54.817Z,97059.55
2022-10-13T00:21:25.856Z,97060.48
2022-10-13T00:23:54.631Z,97060.58
2022-10-13T00:26:25.330Z,97058.23
2022-10-13T00:28:55.775Z,97056.65
2022-10-13T00:31:27.438Z,97053.52
2022-10-13T00:33:55.789Z,97053.45
2022-10-13T00:36:24.936Z,97054.33
2022-10-13T00:38:53.690Z,97056.16
2022-10-13T00:41:21.690Z,97051.20
2022-10-13T00:43:57.828Z,97047.45
2022-10-13T00:46:29.315Z,97048.02
2022-10-13T00:49:02.370Z,97042.40
2022-10-13T00:51:33.417Z,97043.50
2022-10-13T00:54:02.415Z,97044.98
2022-10-13T00:56:30.226Z,97040.45
2022-10-13T00:59:00.037Z,97039.27
2022-10-13T01:01:27.741Z,97037.90
2022-10-13T01:03:55.357Z,97039.33
2022-10-13T01:06:24.037Z,97044.63
2022-10-13T01:08:51.966Z,97039.85
2022-10-13T01:11:38.088Z,97034.11
2022-10-13T01:14:33.039Z,97035.86
2022-10-13T01:17:11.750Z,97039.54
2022-10-13T01:19:59.322Z,97036.69
2022-10-13T01:22:50.143Z,97034.19
2022-10-13T01:25:35.148Z,97031.45
2022-10-13T01:28:32.815Z,97036.95
2022-10-13T01:31:11.155Z,97045.33
2022-10-13T01:33:57.819Z,97048.52
2022-10-13T01:36:47.055Z,97050.18
2022-10-13T01:39:38.347Z,97047.91
2022-10-13T01:42:13.197Z,97042.30
2022-10-13T01:44:47.058Z,97041.23
2022-10-13T01:47:17.523Z,97038.66
2022-10-13T01:49:46.683Z,97044.15
2022-10-13T01:52:18.058Z,97047.69
2022-10-13T01:54:51.435Z,97046.48
2022-10-13T01:57:34.283Z,97045.66
2022-10-13T02:00:08.648Z,97038.63
2022-10-13T02:03:05.653Z,97039.24
2022-10-13T02:05:49.302Z,97037.36
2022-10-13T02:08:30.569Z,97038.31
2022-10-13T02:11:12.515Z,97038.45
2022-10-13T02:13:46.886Z,97041.68
2022-10-13T02:16:23.714Z,97048.17
2022-10-13T02:18:52.149Z,97049.40
2022-10-13T02:21:19.692Z,97039.61
2022-10-13T02:23:47.350Z,97037.56
2022-10-13T02:26:15.108Z,97036.77
2022-10-13T02:28:42.745Z,97036.44
2022-10-13T02:31:10.528Z,97037.15
2022-10-13T02:33:38.275Z,97040.71
2022-10-13T02:36:05.964Z,97041.94
2022-10-13T02:38:33.545Z,97042.08
2022-10-13T02:41:02.756Z,97041.19
2022-10-13T02:43:30.509Z,97041.23
2022-10-13T02:45:58.182Z,97045.86
2022-10-13T02:48:26.515Z,97045.02
2022-10-13T02:50:54.219Z,97046.04
2022-10-13T02:53:21.894Z,97047.88
2022-10-13T02:55:49.475Z,97051.02
2022-10-13T02:58:17.097Z,97056.05
2022-10-13T03:00:44.830Z,97057.23
2022-10-13T03:03:13.120Z,97060.55
2022-10-13T03:05:41.572Z,97059.86
2022-10-13T03:08:09.176Z,97058.30
2022-10-13T03:10:36.849Z,97058.14
2022-10-13T03:13:04.391Z,97061.09
2022-10-13T03:15:32.023Z,97060.80
2022-10-13T03:18:00.141Z,97059.57
2022-10-13T03:20:30.350Z,97062.30
2022-10-13T03:22:57.904Z,97057.77
2022-10-13T03:25:25.562Z,97057.86
2022-10-13T03:27:55.629Z,97055.35
2022-10-13T03:30:23.211Z,97057.32
2022-10-13T03:32:50.816Z,97055.11
2022-10-13T03:35:18.554Z,97057.52
2022-10-13T03:37:46.401Z,97053.85
2022-10-13T03:40:14.094Z,97051.40
2022-10-13T03:42:41.697Z,97047.52
2022-10-13T03:45:10.750Z,97046.63
2022-10-13T03:47:38.532Z,97047.83
2022-10-13T03:50:06.895Z,97047.27
2022-10-13T03:52:34.463Z,97042.80
2022-10-13T03:55:02.069Z,97045.63
2022-10-13T03:57:30.668Z,97043.71
2022-10-13T03:59:58.860Z,97039.27
2022-10-13T04:02:27.702Z,97044.19
2022-10-13T04:04:55.622Z,97042.92
2022-10-13T04:07:23.176Z,97047.15
2022-10-13T04:09:50.872Z,97048.30
2022-10-13T04:12:21.160Z,97050.71
2022-10-13T04:14:48.939Z,97049.64
2022-10-13T04:17:16.563Z,97047.90
2022-10-13T04:19:44.386Z,97049.39
2022-10-13T04:22:12.061Z,97051.46
2022-10-13T04:24:42.061Z,97049.52
2022-10-13T04:27:10.159Z,97050.19
2022-10-13T04:29:37.852Z,97046.45
2022-10-13T04:32:05.506Z,97043.38
2022-10-13T04:34:33.285Z,97041.64
2022-10-13T04:37:00.870Z,97039.88
2022-10-13T04:39:28.671Z,97040.40
2022-10-13T04:41:56.559Z,97039.80
2022-10-13T04:44:24.830Z,97036.17
2022-10-13T04:46:52.518Z,97034.66
2022-10-13T04:49:20.199Z,97034.02
2022-10-13T04:51:47.869Z,97031.95
2022-10-13T04:54:15.638Z,97033.81
2022-10-13T04:56:45.830Z,97031.30
2022-10-13T04:59:13.447Z,97029.63
2022-10-13T05:01:42.170Z,97027.69
2022-10-13T05:04:13.978Z,97028.15
2022-10-13T05:07:05.438Z,97031.00
2022-10-13T05:09:30.737Z,97031.34
2022-10-13T05:12:08.637Z,97029.55
2022-10-13T05:14:36.351Z,97026.52
2022-10-13T05:17:08.334Z,97030.20
2022-10-13T05:19:36.509Z,97028.61
2022-10-13T05:22:04.110Z,97031.58
2022-10-13T05:24:36.583Z,97032.11
2022-10-13T05:27:08.485Z,97031.36
2022-10-13T05:29:36.811Z,97032.31
2022-10-13T05:32:08.467Z,97028.88
2022-10-13T05:34:36.348Z,97030.03
2022-10-13T05:37:04.848Z,97026.95
2022-10-13T05:39:34.067Z,97029.28
2022-10-13T05:42:02.019Z,97027.52
2022-10-13T05:44:29.850Z,97029.95
2022-10-13T05:46:57.660Z,97030.20
2022-10-13T05:49:25.555Z,97035.73
2022-10-13T05:51:57.266Z,97038.23
2022-10-13T05:54:30.815Z,97042.17
2022-10-13T05:57:12.035Z,97047.02
2022-10-13T05:59:47.394Z,97048.33
2022-10-13T06:02:18.075Z,97052.56
2022-10-13T06:04:50.526Z,97053.95
2022-10-13T06:07:19.243Z,97056.36
2022-10-13T06:09:47.055Z,97062.21
2022-10-13T06:12:14.814Z,97068.02
2022-10-13T06:14:43.606Z,97070.67
2022-10-13T06:17:17.619Z,97073.27
2022-10-13T06:19:52.759Z,97074.35
2022-10-13T06:22:23.285Z,97075.77
2022-10-13T06:24:54.929Z,97071.48
2022-10-13T06:27:32.817Z,97080.14
2022-10-13T06:30:03.598Z,97081.21
2022-10-13T06:32:31.423Z,97079.79
2022-10-13T06:38:37.432Z,97080.41
2022-10-13T06:41:18.336Z,97082.37
2022-10-13T06:44:14.454Z,97087.40
2022-10-13T06:46:55.604Z,97089.73
2022-10-13T06:49:42.816Z,97083.67
2022-10-13T06:52:19.995Z,97087.62
2022-10-13T06:54:51.836Z,97084.04
2022-10-13T07:01:41.360Z,97082.59
2022-10-13T07:05:02.379Z,97083.27
2022-10-13T07:08:29.262Z,97080.37
2022-10-13T07:11:23.059Z,97078.40
2022-10-13T07:14:05.895Z,97078.61
2022-10-13T07:16:38.747Z,97076.31
2022-10-13T07:22:11.206Z,97077.73
2022-10-13T07:25:02.027Z,97078.44
2022-10-13T07:27:38.282Z,97079.36
2022-10-13T07:30:21.398Z,97076.21
2022-10-13T07:32:52.024Z,97075.58
2022-10-13T07:35:25.838Z,97075.34
2022-10-13T07:38:01.301Z,97075.94
2022-10-13T07:40:49.443Z,97074.64
2022-10-13T07:43:22.620Z,97074.20
2022-10-13T07:46:00.815Z,97073.21
2022-10-13T07:50:39.974Z,97074.69
2022-10-13T07:52:20.774Z,97072.29
2022-10-13T07:54:58.456Z,97074.76
2022-10-13T07:57:54.160Z,97075.05
2022-10-13T08:00:29.189Z,97074.35
2022-10-13T08:02:57.272Z,97071.84
2022-10-13T08:05:28.962Z,97067.94
2022-10-13T08:08:13.710Z,97063.45
2022-10-13T08:10:46.798Z,97068.77
2022-10-13T08:13:26.218Z,97067.30
2022-10-13T08:15:54.529Z,97068.70
2022-10-13T08:18:30.762Z,97069.11
2022-10-13T08:21:33.167Z,97062.10
2022-10-13T08:23:52.148Z,97063.27
2022-10-13T08:26:55.421Z,97063.61
2022-10-13T08:29:26.527Z,97064.20
2022-10-13T08:32:00.884Z,97065.40
2022-10-13T08:34:42.591Z,97070.70
2022-10-13T08:37:25.931Z,97066.81
2022-10-13T08:40:01.060Z,97070.13
2022-10-13T08:42:30.555Z,97073.52
2022-10-13T08:48:04.799Z,97075.80
2022-10-13T08:50:42.111Z,97079.38
2022-10-13T08:53:40.045Z,97082.86
2022-10-13T08:56:31.925Z,97084.12
2022-10-13T08:59:01.703Z,97083.80
2022-10-13T09:01:36.059Z,97081.11
2022-10-13T09:04:29.981Z,97083.21
2022-10-13T09:07:07.364Z,97081.61
2022-10-13T09:10:29.186Z,97084.34
2022-10-13T09:14:09.431Z,97085.41
2022-10-13T09:17:49.527Z,97084.95
2022-10-13T09:21:29.725Z,97082.42
2022-10-13T09:25:09.848Z,97081.69
2022-10-13T09:28:50.253Z,97078.54
2022-10-13T09:32:30.232Z,97080.81
2022-10-13T09:36:10.488Z,97081.88
2022-10-13T09:39:50.604Z,97084.61
2022-10-13T09:43:30.755Z,97081.14
2022-10-13T09:47:10.926Z,97077.33
2022-10-13T09:50:51.164Z,97073.64
2022-10-13T09:54:32.168Z,97070.27
2022-10-13T09:58:13.514Z,97069.48
2022-10-13T10:01:51.810Z,97071.61
2022-10-13T10:05:31.993Z,97067.86
2022-10-13T10:09:12.229Z,97066.71
2022-10-13T10:12:52.346Z,97061.10
2022-10-13T10:16:32.502Z,97060.82
2022-10-13T10:20:12.848Z,97057.32
2022-10-13T10:23:54.506Z,97057.85
2022-10-13T10:27:33.106Z,97050.64
2022-10-13T10:31:13.331Z,97049.91
2022-10-13T10:34:53.614Z,97044.98
2022-10-13T10:38:34.658Z,97048.38
2022-10-13T10:42:13.961Z,97042.41
2022-10-13T10:45:54.130Z,97036.90
2022-10-13T10:49:34.729Z,97037.91
2022-10-13T10:53:14.412Z,97034.79
2022-10-13T10:56:55.386Z,97032.59
2022-10-13T11:00:34.728Z,97030.11
2022-10-13T11:04:15.025Z,97018.13
2022-10-13T11:07:57.366Z,97018.18
2022-10-13T11:10:46.834Z,97014.68
2022-10-13T11:13:18.209Z,97008.73
2022-10-13T11:15:47.072Z,97007.61
2022-10-13T11:18:57.688Z,97007.85
2022-10-13T11:22:08.619Z,97002.13
2022-10-13T11:24:59.697Z,97002.24
2022-10-13T11:28:10.933Z,96998.20
2022-10-13T11:30:44.503Z,96994.04
2022-10-13T11:33:40.785Z,96990.33
2022-10-13T11:36:36.979Z,96987.77
2022-10-13T11:39:34.855Z,96981.23
2022-10-13T11:42:21.528Z,96980.36
2022-10-13T11:45:14.185Z,96979.17
2022-10-13T11:48:11.907Z,96974.95
2022-10-13T11:50:59.687Z,96972.83
2022-10-13T11:53:37.371Z,96969.88
2022-10-13T11:56:33.810Z,96971.18
2022-10-13T11:59:07.021Z,96966.74
2022-10-13T12:01:36.427Z,96967.00
2022-10-13T12:04:15.192Z,96970.27
2022-10-13T12:06:59.810Z,96964.39
2022-10-13T12:09:33.754Z,96965.39
2022-10-13T12:12:27.258Z,96965.34
2022-10-13T12:15:01.093Z,96961.16
2022-10-13T12:17:37.432Z,96960.41
2022-10-13T12:20:23.053Z,96953.88
2022-10-13T12:22:54.812Z,96949.92
2022-10-13T12:25:30.758Z,96946.67
2022-10-13T12:28:07.543Z,96947.52
2022-10-13T12:30:39.484Z,96946.80
2022-10-13T12:33:23.865Z,96944.84
2022-10-13T12:35:54.182Z,96942.50
2022-10-13T12:38:24.369Z,96939.59
2022-10-13T12:40:54.490Z,96941.80
2022-10-13T12:43:26.883Z,96940.29
2022-10-13T12:46:05.219Z,96939.45
2022-10-13T12:48:41.132Z,96938.23
2022-10-13T12:51:24.862Z,96938.11
2022-10-13T12:53:55.932Z,96937.88
2022-10-13T12:56:31.143Z,96934.38
2022-10-13T12:59:01.463Z,96934.64
2022-10-13T13:01:55.499Z,96933.36
2022-10-13T13:04:56.229Z,96930.20
2022-10-13T13:07:39.541Z,96925.64
2022-10-13T13:10:43.723Z,96921.70
2022-10-13T13:13:17.299Z,96915.96
2022-10-13T13:15:45.362Z,96911.15
2022-10-13T13:18:36.401Z,96908.88
2022-10-13T13:21:12.972Z,96910.55
2022-10-13T13:23:51.103Z,96912.14
2022-10-13T13:26:24.541Z,96906.75
2022-10-13T13:29:00.246Z,96907.22
2022-10-13T13:31:29.769Z,96909.61
2022-10-13T13:34:00.984Z,96905.48
2022-10-13T13:36:30.825Z,96900.23
2022-10-13T13:38:58.655Z,96902.78
2022-10-13T13:41:30.981Z,96902.96
2022-10-13T13:44:02.940Z,96900.84
2022-10-13T13:46:32.188Z,96901.64
2022-10-13T13:49:02.845Z,96903.05
2022-10-13T13:51:31.010Z,96902.64
2022-10-13T13:54:00.259Z,96902.36
2022-10-13T13:56:36.086Z,96899.63
2022-10-13T13:59:06.346Z,96902.30
2022-10-13T14:01:35.129Z,96902.56
2022-10-13T14:04:29.814Z,96899.68
2022-10-13T14:07:03.471Z,96901.80
2022-10-13T14:09:32.436Z,96899.52
2022-10-13T14:12:03.136Z,96898.39
2022-10-13T14:14:33.042Z,96901.08
2022-10-13T14:17:03.628Z,96901.98
2022-10-13T14:19:32.914Z,96899.27
2022-10-13T14:22:09.182Z,96900.90
2022-10-13T14:24:37.325Z,96896.39
2022-10-13T14:27:05.436Z,96895.80
2022-10-13T14:29:33.090Z,96893.92
2022-10-13T14:32:00.781Z,96894.84
2022-10-13T14:34:28.419Z,96897.98
2022-10-13T14:36:56.072Z,96900.38
2022-10-13T14:39:25.148Z,96900.42
2022-10-13T14:41:52.894Z,96898.29
2022-10-13T14:44:20.545Z,96895.07
2022-10-13T14:46:49.979Z,96895.98
2022-10-13T14:49:18.010Z,96896.38
2022-10-13T14:51:46.791Z,96900.09
2022-10-13T14:54:14.784Z,96901.13
2022-10-13T14:56:48.019Z,96904.64
2022-10-13T14:59:18.042Z,96900.30
2022-10-13T15:01:46.875Z,96904.00
2022-10-13T15:04:14.616Z,96904.27
2022-10-13T15:06:43.852Z,96900.39
2022-10-13T15:09:12.751Z,96899.54
2022-10-13T15:11:40.638Z,96897.31
2022-10-13T15:14:09.790Z,96898.39
2022-10-13T15:16:37.996Z,96897.82
2022-10-13T15:19:05.964Z,96894.98
2022-10-13T15:21:33.723Z,96897.33
2022-10-13T15:24:01.695Z,96897.88
2022-10-13T15:26:29.294Z,96898.91
2022-10-13T15:28:56.990Z,96902.14
2022-10-13T15:31:24.841Z,96904.15
2022-10-13T15:33:54.154Z,96900.77
2022-10-13T15:36:24.026Z,96900.44
2022-10-13T15:38:52.252Z,96898.94
2022-10-13T15:41:21.380Z,96900.21
2022-10-13T15:43:49.472Z,96899.70
2022-10-13T15:46:21.831Z,96903.21
2022-10-13T15:48:51.659Z,96901.21
2022-10-13T15:51:21.753Z,96900.87
2022-10-13T15:53:49.874Z,96900.21
2022-10-13T15:56:18.126Z,96899.14
2022-10-13T15:58:45.869Z,96901.40
2022-10-13T16:01:14.482Z,96894.77
2022-10-13T16:03:42.454Z,96896.89
2022-10-13T16:06:11.838Z,96895.89
2022-10-13T16:08:42.456Z,96897.55
2022-10-13T16:11:12.543Z,96897.62
2022-10-13T16:13:41.495Z,96902.73
2022-10-13T16:16:09.058Z,96905.32
2022-10-13T16:18:38.663Z,96909.45
2022-10-13T16:21:17.318Z,96908.97
2022-10-13T16:23:47.686Z,96908.19
2022-10-13T16:26:17.652Z,96911.27
2022-10-13T16:28:46.660Z,96910.94
2022-10-13T16:31:16.812Z,96915.55
2022-10-13T16:33:45.670Z,96916.07
2022-10-13T16:36:16.671Z,96916.02
2022-10-13T16:38:45.866Z,96913.34
2022-10-13T16:41:16.848Z,96911.21
2022-10-13T16:43:45.725Z,96910.45
2022-10-13T16:46:16.181Z,96909.83
2022-10-13T16:48:45.437Z,96910.63
2022-10-13T16:51:16.403Z,96909.58
2022-10-13T16:53:48.722Z,96906.52
2022-10-13T16:56:21.893Z,96905.54
2022-10-13T16:58:52.472Z,96911.38
2022-10-13T17:01:20.733Z,96909.30
2022-10-13T17:03:50.234Z,96904.81
2022-10-13T17:06:19.986Z,96905.19
2022-10-13T17:08:57.549Z,96909.05
2022-10-13T17:11:28.575Z,96907.96
2022-10-13T17:13:57.021Z,96906.94
2022-10-13T17:16:25.260Z,96909.48
2022-10-13T17:18:53.914Z,96908.07
2022-10-13T17:21:22.083Z,96906.05
2022-10-13T17:23:50.818Z,96905.99
2022-10-13T17:26:19.580Z,96905.08
2022-10-13T17:28:47.314Z,96906.56
2022-10-13T17:31:17.816Z,96905.23
2022-10-13T17:33:46.417Z,96908.07
2022-10-13T17:36:19.649Z,96902.94
2022-10-13T17:38:49.085Z,96904.85
2022-10-13T17:41:17.488Z,96904.16
2022-10-13T17:43:51.105Z,96902.89
2022-10-13T17:46:39.148Z,96900.30
2022-10-13T17:49:10.892Z,96904.52
2022-10-13T17:51:40.609Z,96905.95
2022-10-13T17:54:14.471Z,96903.55
2022-10-13T17:56:45.112Z,96904.30
2022-10-13T17:59:14.322Z,96901.47
2022-10-13T18:01:42.634Z,96903.96
2022-10-13T18:04:14.704Z,96905.27
2022-10-13T18:06:44.183Z,96903.91
2022-10-13T18:09:17.287Z,96900.83
2022-10-13T18:11:50.150Z,96895.48
2022-10-13T18:14:22.153Z,96891.59
2022-10-13T18:16:51.702Z,96891.50
2022-10-13T18:19:21.108Z,96891.70
2022-10-13T18:21:49.249Z,96890.07
2022-10-13T18:24:16.921Z,96891.65
2022-10-13T18:26:47.531Z,96893.92
2022-10-13T18:29:15.240Z,96894.60
2022-10-13T18:31:43.074Z,96889.00
2022-10-13T18:34:15.317Z,96891.08
2022-10-13T18:36:47.252Z,96894.20
2022-10-13T18:39:17.511Z,96897.42
2022-10-13T18:41:47.748Z,96894.77
2022-10-13T18:44:15.820Z,96895.54
2022-10-13T18:46:43.692Z,96896.83
2022-10-13T18:49:13.685Z,96898.34
2022-10-13T18:51:42.665Z,96899.28
2022-10-13T18:54:10.833Z,96895.98
2022-10-13T18:56:38.675Z,96894.54
2022-10-13T18:59:08.109Z,96893.44
2022-10-13T19:01:37.180Z,96894.39
2022-10-13T19:04:05.596Z,96896.63
2022-10-13T19:06:33.557Z,96898.79
2022-10-13T19:09:05.437Z,96895.36
2022-10-13T19:11:35.473Z,96896.28
2022-10-13T19:14:05.535Z,96898.17
2022-10-13T19:16:36.571Z,96900.38
2022-10-13T19:19:04.678Z,96903.64
2022-10-13T19:21:32.735Z,96902.39
2022-10-13T19:24:00.723Z,96900.33
2022-10-13T19:26:31.408Z,96898.98
2022-10-13T19:29:01.973Z,96896.34
2022-10-13T19:31:31.797Z,96893.01
2022-10-13T19:34:00.806Z,96897.66
2022-10-13T19:36:40.910Z,96898.64
2022-10-13T19:39:19.726Z,96895.98
2022-10-13T19:41:48.127Z,96896.97
2022-10-13T19:44:17.300Z,96894.85
2022-10-13T19:46:46.413Z,96895.48
2022-10-13T19:49:16.443Z,96894.93
2022-10-13T19:51:49.083Z,96893.45
2022-10-13T19:54:20.072Z,96897.40
2022-10-13T19:56:49.148Z,96894.77
2022-10-13T19:59:19.690Z,96894.05
2022-10-13T20:01:47.692Z,96893.05
2022-10-13T20:04:18.418Z,96897.63
2022-10-13T20:06:49.579Z,96900.08
2022-10-13T20:09:18.673Z,96900.77
2022-10-13T20:11:48.605Z,96902.20
2022-10-13T20:14:17.735Z,96898.54
2022-10-13T20:16:45.378Z,96898.45
2022-10-13T20:19:16.169Z,96895.74
2022-10-13T20:21:47.942Z,96892.49
2022-10-13T20:24:16.608Z,96889.66
2022-10-13T20:26:44.189Z,96885.03
2022-10-13T20:29:12.136Z,96885.10
2022-10-13T20:31:39.798Z,96882.73
2022-10-13T20:34:08.471Z,96884.44
2022-10-13T20:36:38.781Z,96884.73
2022-10-13T20:39:08.456Z,96880.33
2022-10-13T20:41:36.707Z,96876.48
2022-10-13T20:44:04.359Z,96878.41
2022-10-13T20:46:34.262Z,96881.73
2022-10-13T20:49:17.355Z,96880.20
2022-10-13T20:51:45.716Z,96877.28
2022-10-13T20:54:15.187Z,96877.96
2022-10-13T20:56:43.037Z,96879.27
2022-10-13T20:59:12.669Z,96874.40
2022-10-13T21:01:40.656Z,96873.65
2022-10-13T21:04:09.382Z,96874.75
2022-10-13T21:06:37.148Z,96873.72
2022-10-13T21:09:05.667Z,96872.84
2022-10-13T21:11:35.233Z,96874.13
2022-10-13T21:14:06.768Z,96873.36
2022-10-13T21:17:09.104Z,96874.84
2022-10-13T21:19:37.907Z,96872.13
2022-10-13T21:22:38.772Z,96866.86
2022-10-13T21:25:10.812Z,96870.63
2022-10-13T21:27:38.699Z,96866.50
2022-10-13T21:30:07.290Z,96871.39
2022-10-13T21:32:34.940Z,96868.38
2022-10-13T21:35:02.726Z,96864.43
2022-10-13T21:37:34.401Z,96868.45
2022-10-13T21:40:35.123Z,96870.67
2022-10-13T21:43:02.890Z,96866.23
2022-10-13T21:45:31.930Z,96869.62
2022-10-13T21:47:59.764Z,96865.86
2022-10-13T21:50:28.307Z,96869.52
2022-10-13T21:52:55.867Z,96866.27
2022-10-13T21:55:48.082Z,96865.58
2022-10-13T21:58:15.775Z,96863.00
2022-10-13T22:00:43.597Z,96862.13
2022-10-13T22:03:11.324Z,96862.10
2022-10-13T22:05:39.313Z,96866.34
2022-10-13T22:08:07.116Z,96870.68
2022-10-13T22:10:34.689Z,96868.70
2022-10-13T22:13:03.334Z,96868.38
2022-10-13T22:15:34.388Z,96862.70
2022-10-13T22:18:02.098Z,96860.28
2022-10-13T22:20:30.000Z,96857.65
2022-10-13T22:22:57.641Z,96856.90
2022-10-13T22:25:25.427Z,96853.80
2022-10-13T22:27:53.108Z,96850.71
2022-10-13T22:30:21.018Z,96849.20
2022-10-13T22:32:48.683Z,96852.66
2022-10-13T22:35:16.301Z,96849.15
2022-10-13T22:37:43.897Z,96850.73
2022-10-13T22:40:11.965Z,96852.48
2022-10-13T22:42:39.517Z,96851.48
2022-10-13T22:45:07.817Z,96851.20
2022-10-13T22:47:35.394Z,96849.72
2022-10-13T22:50:03.454Z,96851.55
2022-10-13T22:52:31.025Z,96851.64
2022-10-13T22:54:58.648Z,96853.13
2022-10-13T22:57:26.450Z,96853.10
2022-10-13T22:59:56.943Z,96854.27
2022-10-13T23:02:24.979Z,96851.58
2022-10-13T23:04:52.566Z,96849.21
2022-10-13T23:07:20.571Z,96851.84
2022-10-13T23:09:48.514Z,96847.98
2022-10-13T23:12:16.428Z,96846.94
2022-10-13T23:14:44.321Z,96848.33
2022-10-13T23:17:14.178Z,96849.21
2022-10-13T23:19:41.811Z,96848.73
2022-10-13T23:22:09.499Z,96852.88
2022-10-13T23:24:37.362Z,96848.40
2022-10-13T23:27:05.514Z,96849.55
2022-10-13T23:29:33.069Z,96850.80
2022-10-13T23:32:00.730Z,96850.38
2022-10-13T23:34:29.085Z,96850.75
2022-10-13T23:36:56.757Z,96850.34
2022-10-13T23:39:24.380Z,96850.86
2022-10-13T23:41:52.042Z,96849.09
2022-10-13T23:44:20.075Z,96850.83
2022-10-13T23:46:48.370Z,96853.54
2022-10-13T23:49:17.061Z,96850.95
2022-10-13T23:51:44.682Z,96849.73
2022-10-13T23:54:12.326Z,96845.73
2022-10-13T23:56:39.969Z,96848.87
2022-10-13T23:59:07.751Z,96850.36
